Terminal Aerodrome Forecast
Issued by NWS Tallahassee, FL

Home | Current Version | Previous Version | Text Only | Print | Product List | Glossary On
Versions: 1 2 3 4 5 6 7 8 9 10 11 12 13 14
000
FTUS42 KTAE 292300
TAFTLH
TAF
KTLH 292321Z 3000/3024 16003KT P6SM FEW040 BKN110 OVC200
     FM300200 00000KT P6SM SCT120 BKN250
      TEMPO 3008/3012 5SM BR
     FM301600 16008KT P6SM VCTS SCT035CB BKN050=

USA.gov is the U.S. government's official web portal to all federal, state and local government web resources and services.